Time;durP1;ratioP1;P1;durP2;ratioP2;P2;SDS_P1;SDS_P2;PMS_P1;PMS_P2;Temp;Humidity;BMP_temperature;BMP_pressure;BME280_temperature;BME280_humidity;BME280_pressure;Samples;Min_cycle;Max_cycle;Signal;HPM_P1;HPM_P2
2024/02/28 00:01:56;;;;;;;20.70;13.40;;;9.50;99.90;;;;;;5059895;28;20533;-81
2024/02/28 00:04:24;;;;;;;16.70;14.70;;;9.50;99.90;;;;;;5056407;28;20540;-81
2024/02/28 00:06:53;;;;;;;19.55;15.52;;;9.50;99.90;;;;;;5060494;28;20438;-79
2024/02/28 00:09:22;;;;;;;16.60;14.20;;;9.40;99.90;;;;;;5057824;28;20203;-80
2024/02/28 00:11:50;;;;;;;16.83;14.30;;;9.40;99.90;;;;;;5057525;28;20965;-80
2024/02/28 00:14:19;;;;;;;16.40;13.50;;;9.40;99.90;;;;;;5057585;28;20456;-80
2024/02/28 00:16:47;;;;;;;18.43;14.37;;;9.40;99.90;;;;;;5058036;28;20474;-80
2024/02/28 00:19:17;;;;;;;17.73;13.60;;;9.30;99.90;;;;;;5055079;28;20446;-81
2024/02/28 00:21:45;;;;;;;14.33;12.80;;;9.30;99.90;;;;;;5055953;28;20861;-79
2024/02/28 00:24:13;;;;;;;17.60;13.43;;;9.30;99.90;;;;;;5054984;28;20546;-79
2024/02/28 00:26:43;;;;;;;15.00;13.23;;;9.30;99.90;;;;;;5055955;28;20444;-80
2024/02/28 00:29:12;;;;;;;16.43;13.23;;;9.30;99.90;;;;;;5057201;28;20440;-81
2024/02/28 00:31:40;;;;;;;17.67;14.47;;;9.30;99.90;;;;;;5057152;28;21069;-81
2024/02/28 00:34:08;;;;;;;16.70;12.20;;;9.30;99.90;;;;;;5058033;28;20840;-80
2024/02/28 00:36:37;;;;;;;18.73;14.73;;;9.20;99.90;;;;;;5057848;28;20803;-83
2024/02/28 00:39:22;;;;;;;19.17;13.30;;;9.30;99.90;;;;;;5058962;28;20550;-80
2024/02/28 00:41:52;;;;;;;16.60;14.90;;;9.20;99.90;;;;;;5059938;28;20491;-81
2024/02/28 00:44:20;;;;;;;14.00;12.47;;;9.30;99.90;;;;;;5058828;28;20471;-82
2024/02/28 00:46:49;;;;;;;16.17;13.33;;;9.20;99.90;;;;;;5056583;28;20442;-82
2024/02/28 00:49:17;;;;;;;18.73;14.30;;;9.10;99.90;;;;;;5063697;28;21353;-82
2024/02/28 00:51:47;;;;;;;16.80;13.13;;;9.10;99.90;;;;;;5058057;28;20472;-82
2024/02/28 00:54:15;;;;;;;19.53;13.90;;;9.10;99.90;;;;;;5059693;28;20975;-81
2024/02/28 00:56:44;;;;;;;18.90;13.50;;;9.00;99.90;;;;;;5061237;28;20469;-81
2024/02/28 00:59:13;;;;;;;21.30;14.60;;;8.90;99.90;;;;;;5056854;28;20460;-82
2024/02/28 01:01:42;;;;;;;14.20;12.50;;;8.90;99.90;;;;;;5060658;28;20469;-80
2024/02/28 01:04:12;;;;;;;16.33;13.33;;;8.90;99.90;;;;;;5056604;28;20474;-82
2024/02/28 01:06:40;;;;;;;17.50;13.27;;;9.00;99.90;;;;;;5062067;28;20430;-81
2024/02/28 01:09:08;;;;;;;17.27;13.93;;;9.00;99.90;;;;;;5060640;28;20443;-80
2024/02/28 01:11:36;;;;;;;16.97;13.23;;;9.00;99.90;;;;;;5057880;28;20506;-82
2024/02/28 01:14:05;;;;;;;19.50;13.90;;;9.00;99.90;;;;;;5061808;28;20457;-79
2024/02/28 01:16:35;;;;;;;15.57;13.97;;;9.00;99.90;;;;;;5058949;28;20494;-79
2024/02/28 01:19:03;;;;;;;17.27;13.27;;;9.00;99.90;;;;;;5058415;28;20546;-81
2024/02/28 01:21:31;;;;;;;17.50;14.30;;;8.90;1.00;;;;;;5056106;28;20467;-83
2024/02/28 01:24:00;;;;;;;19.70;13.83;;;8.90;1.00;;;;;;5058123;28;21132;-83
2024/02/28 01:26:28;;;;;;;19.47;15.00;;;8.90;1.00;;;;;;5059109;28;20829;-83
2024/02/28 01:28:56;;;;;;;19.83;14.90;;;8.90;1.00;;;;;;5059352;28;20522;-83
2024/02/28 01:31:25;;;;;;;23.07;14.23;;;8.90;1.00;;;;;;5058893;28;20448;-83
2024/02/28 01:33:55;;;;;;;16.40;13.50;;;9.00;1.00;;;;;;5055567;28;20482;-83
2024/02/28 01:36:24;;;;;;;18.80;13.90;;;9.00;1.00;;;;;;5057632;28;21167;-82
2024/02/28 01:38:52;;;;;;;20.17;14.83;;;9.00;1.00;;;;;;5052811;28;20534;-81
2024/02/28 01:41:20;;;;;;;18.50;15.50;;;9.00;1.00;;;;;;5058957;28;21165;-81
2024/02/28 01:43:48;;;;;;;17.20;14.90;;;9.00;1.00;;;;;;5054929;28;20498;-83
2024/02/28 01:46:24;;;;;;;16.33;12.97;;;9.00;1.00;;;;;;5057233;28;20454;-81
2024/02/28 01:48:55;;;;;;;18.80;14.63;;;9.00;1.00;;;;;;5061730;28;20485;-82
2024/02/28 01:51:25;;;;;;;18.87;13.50;;;9.00;1.00;;;;;;5057353;28;20505;-83
2024/02/28 01:53:55;;;;;;;19.87;15.13;;;9.00;1.00;;;;;;5062382;28;20463;-81
2024/02/28 01:56:25;;;;;;;19.70;14.17;;;9.00;1.00;;;;;;5054766;28;20459;-83
2024/02/28 01:58:55;;;;;;;20.93;15.67;;;9.00;1.00;;;;;;5063550;28;20486;-81
2024/02/28 02:01:23;;;;;;;18.00;14.80;;;9.00;1.00;;;;;;5065517;28;21451;-83
2024/02/28 02:03:51;;;;;;;18.80;15.50;;;9.00;1.00;;;;;;5059989;28;20479;-83
2024/02/28 02:06:22;;;;;;;19.93;15.37;;;9.00;1.00;;;;;;5062013;28;20475;-84
2024/02/28 02:08:50;;;;;;;18.67;14.70;;;9.10;1.00;;;;;;5062020;28;20533;-79
2024/02/28 02:11:19;;;;;;;20.30;14.00;;;9.00;1.00;;;;;;5060332;28;20447;-84
2024/02/28 02:13:52;;;;;;;17.10;14.43;;;9.00;1.00;;;;;;5060559;28;20483;-84
2024/02/28 02:16:21;;;;;;;19.83;16.77;;;9.00;1.00;;;;;;5061857;28;20444;-80
2024/02/28 02:18:50;;;;;;;21.63;16.60;;;9.00;1.00;;;;;;5067147;28;20525;-84
2024/02/28 02:21:24;;;;;;;18.60;15.60;;;9.10;1.00;;;;;;5067086;28;20484;-84
2024/02/28 02:23:54;;;;;;;18.53;14.73;;;9.10;1.00;;;;;;5063702;28;20478;-83
2024/02/28 02:26:22;;;;;;;21.20;15.30;;;9.10;1.00;;;;;;5060256;28;20455;-82
2024/02/28 02:28:51;;;;;;;18.60;14.27;;;9.00;1.00;;;;;;5062703;28;20450;-80
2024/02/28 02:31:19;;;;;;;20.07;15.70;;;9.00;1.00;;;;;;5057668;28;20445;-83
2024/02/28 02:33:47;;;;;;;15.97;13.20;;;9.00;1.00;;;;;;5063170;28;20467;-83
2024/02/28 02:36:16;;;;;;;21.07;15.83;;;9.00;1.00;;;;;;5062088;28;20447;-83
2024/02/28 02:38:44;;;;;;;17.67;13.53;;;9.00;1.00;;;;;;5059679;28;20466;-83
2024/02/28 02:41:13;;;;;;;20.30;15.50;;;9.00;1.00;;;;;;5062462;28;20527;-82
2024/02/28 02:43:41;;;;;;;15.17;13.13;;;9.00;1.00;;;;;;5060484;28;20477;-81
2024/02/28 02:46:09;;;;;;;17.40;14.10;;;8.90;1.00;;;;;;5061815;28;20473;-80
2024/02/28 02:48:37;;;;;;;17.87;14.10;;;8.90;1.00;;;;;;5062008;28;20900;-82
2024/02/28 02:51:06;;;;;;;17.13;14.30;;;8.90;1.00;;;;;;5057729;28;20534;-84
2024/02/28 02:53:34;;;;;;;17.80;13.90;;;8.90;1.00;;;;;;5056444;28;20558;-83
2024/02/28 02:56:05;;;;;;;17.40;14.40;;;8.90;1.00;;;;;;5062472;28;20469;-81
2024/02/28 02:58:34;;;;;;;17.50;14.40;;;8.90;1.00;;;;;;5062660;28;20517;-83
2024/02/28 03:01:02;;;;;;;21.00;14.33;;;8.80;1.00;;;;;;5058188;28;20948;-83
2024/02/28 03:03:31;;;;;;;17.93;14.20;;;8.90;1.00;;;;;;5061786;28;20452;-84
2024/02/28 03:05:59;;;;;;;19.30;15.13;;;8.90;1.00;;;;;;5056170;28;20461;-82
2024/02/28 03:08:27;;;;;;;18.87;13.43;;;8.90;1.00;;;;;;5059074;28;20438;-83
2024/02/28 03:10:55;;;;;;;21.93;15.67;;;8.90;1.00;;;;;;5063342;28;20440;-83
2024/02/28 03:13:24;;;;;;;20.13;14.20;;;8.90;1.00;;;;;;5058087;28;20790;-83
2024/02/28 03:15:53;;;;;;;21.97;15.60;;;8.90;1.00;;;;;;5057167;28;20499;-82
2024/02/28 03:18:21;;;;;;;18.20;13.50;;;8.90;1.00;;;;;;5059783;28;20467;-83
2024/02/28 03:20:49;;;;;;;18.07;13.23;;;8.90;1.00;;;;;;5060023;28;20456;-81
2024/02/28 03:23:17;;;;;;;17.47;13.63;;;8.90;1.00;;;;;;5057689;28;20443;-82
2024/02/28 03:25:46;;;;;;;20.90;15.10;;;8.90;1.00;;;;;;5055352;28;20448;-82
2024/02/28 03:28:14;;;;;;;20.57;14.87;;;8.90;1.00;;;;;;5057586;28;20464;-84
2024/02/28 03:30:42;;;;;;;19.57;13.67;;;8.90;1.00;;;;;;5057525;28;20448;-82
2024/02/28 03:33:12;;;;;;;18.97;13.93;;;8.90;1.00;;;;;;5065451;28;20538;-82
2024/02/28 03:35:40;;;;;;;17.33;13.67;;;8.90;1.00;;;;;;5053815;28;20521;-82
2024/02/28 03:38:08;;;;;;;17.80;14.17;;;8.90;1.00;;;;;;5058609;28;20478;-83
2024/02/28 03:40:36;;;;;;;16.63;14.10;;;8.90;1.00;;;;;;5063466;28;20969;-82
2024/02/28 03:43:05;;;;;;;19.30;14.53;;;9.00;1.00;;;;;;5063456;28;20500;-80
2024/02/28 03:45:38;;;;;;;16.67;13.23;;;8.90;1.00;;;;;;5062509;28;20901;-80
2024/02/28 03:48:07;;;;;;;18.77;13.93;;;8.90;1.00;;;;;;5059144;28;20440;-83
2024/02/28 03:50:49;;;;;;;21.17;14.30;;;8.90;1.00;;;;;;5058486;28;20987;-82
2024/02/28 03:53:17;;;;;;;15.47;13.77;;;8.80;1.00;;;;;;5058031;28;20548;-81
2024/02/28 03:55:45;;;;;;;19.40;14.70;;;8.90;1.00;;;;;;5060676;28;20458;-81
2024/02/28 03:58:13;;;;;;;15.90;13.57;;;8.90;1.00;;;;;;5062817;28;20490;-82
2024/02/28 04:00:44;;;;;;;15.77;14.07;;;8.90;99.90;;;;;;5065056;28;20503;-82
2024/02/28 04:03:13;;;;;;;21.63;15.87;;;8.90;99.90;;;;;;5059036;28;20454;-82
2024/02/28 04:05:42;;;;;;;16.73;13.57;;;8.80;99.90;;;;;;5059483;28;20453;-83
2024/02/28 04:08:12;;;;;;;20.27;14.30;;;8.90;99.90;;;;;;5060206;28;20489;-83
2024/02/28 04:10:40;;;;;;;20.83;14.40;;;8.80;99.90;;;;;;5054679;28;20454;-83
2024/02/28 04:13:09;;;;;;;22.00;15.90;;;8.80;99.90;;;;;;5059347;28;20450;-81
2024/02/28 04:15:38;;;;;;;15.70;13.63;;;8.90;99.90;;;;;;5062062;28;20477;-81
2024/02/28 04:18:06;;;;;;;17.47;15.17;;;8.90;99.90;;;;;;5059457;28;20524;-83
2024/02/28 04:20:34;;;;;;;18.13;13.17;;;8.80;99.90;;;;;;5057111;28;20530;-83
2024/02/28 04:23:02;;;;;;;16.57;13.23;;;8.80;99.90;;;;;;5054034;28;20454;-82
2024/02/28 04:25:32;;;;;;;17.93;14.00;;;8.80;99.90;;;;;;5058466;28;20472;-82
2024/02/28 04:28:00;;;;;;;18.00;13.80;;;8.80;99.90;;;;;;5057076;28;20860;-82
2024/02/28 04:30:29;;;;;;;17.80;14.90;;;8.80;99.90;;;;;;5057943;28;20458;-82
2024/02/28 04:32:57;;;;;;;16.47;13.37;;;8.80;99.90;;;;;;5053704;28;20456;-83
2024/02/28 04:35:25;;;;;;;18.30;14.73;;;8.80;99.90;;;;;;5053846;28;20473;-81
2024/02/28 04:37:54;;;;;;;17.93;14.00;;;8.80;99.90;;;;;;5054990;28;20501;-83
2024/02/28 04:40:22;;;;;;;16.77;13.10;;;8.80;99.90;;;;;;5057163;28;20491;-83
2024/02/28 04:42:52;;;;;;;21.00;13.87;;;8.80;99.90;;;;;;5057459;28;20464;-84
2024/02/28 04:45:20;;;;;;;16.07;13.03;;;8.80;99.90;;;;;;5056148;28;20549;-82
2024/02/28 04:47:50;;;;;;;20.97;15.30;;;8.80;99.90;;;;;;5057367;28;20458;-84
2024/02/28 04:50:19;;;;;;;19.47;14.50;;;8.80;99.90;;;;;;5056641;28;20976;-84
2024/02/28 04:52:47;;;;;;;20.30;16.10;;;8.80;99.90;;;;;;5056517;28;20447;-82
2024/02/28 04:55:15;;;;;;;17.80;14.97;;;8.80;99.90;;;;;;5058980;28;20551;-83
2024/02/28 04:57:44;;;;;;;16.50;14.03;;;8.80;99.90;;;;;;5059812;28;20462;-84
2024/02/28 05:00:14;;;;;;;16.37;13.93;;;8.80;99.90;;;;;;5057703;28;21019;-83
2024/02/28 05:02:42;;;;;;;19.10;13.50;;;8.80;99.90;;;;;;5053967;28;20443;-83
2024/02/28 05:05:10;;;;;;;18.07;13.00;;;8.80;99.90;;;;;;5055890;28;20479;-83
2024/02/28 05:07:39;;;;;;;15.37;13.10;;;8.80;99.90;;;;;;5062021;28;20451;-82
2024/02/28 05:10:08;;;;;;;19.43;13.90;;;8.80;99.90;;;;;;5058374;28;20449;-81
2024/02/28 05:12:37;;;;;;;15.20;13.60;;;8.80;99.90;;;;;;5055459;28;20794;-83
2024/02/28 05:15:07;;;;;;;15.60;13.90;;;8.80;99.90;;;;;;5057779;28;20505;-82
2024/02/28 05:17:36;;;;;;;19.07;14.97;;;8.70;99.90;;;;;;5054872;28;20440;-83
2024/02/28 05:20:06;;;;;;;20.57;13.80;;;8.70;99.90;;;;;;5051953;28;20486;-82
2024/02/28 05:22:34;;;;;;;20.63;14.47;;;8.70;99.90;;;;;;5061378;28;20455;-83
2024/02/28 05:25:02;;;;;;;19.57;15.33;;;8.70;99.90;;;;;;5060337;28;20470;-81
2024/02/28 05:27:30;;;;;;;19.83;14.57;;;8.70;99.90;;;;;;5059822;28;20496;-82
2024/02/28 05:30:00;;;;;;;16.73;14.57;;;8.60;99.90;;;;;;5056508;28;20431;-83
2024/02/28 05:32:29;;;;;;;19.13;14.13;;;8.60;99.90;;;;;;5058041;28;20448;-82
2024/02/28 05:34:57;;;;;;;16.33;13.77;;;8.60;99.90;;;;;;5060951;28;21042;-81
2024/02/28 05:37:25;;;;;;;16.53;13.87;;;8.60;99.90;;;;;;5058243;28;20994;-81
2024/02/28 05:39:54;;;;;;;17.30;13.53;;;8.70;99.90;;;;;;5060033;28;20991;-79
2024/02/28 05:42:23;;;;;;;18.13;14.03;;;8.70;99.90;;;;;;5057792;28;20461;-80
2024/02/28 05:44:52;;;;;;;18.67;13.83;;;8.70;99.90;;;;;;5059048;28;20484;-81
2024/02/28 05:47:20;;;;;;;16.90;13.40;;;8.70;99.90;;;;;;5057427;28;20450;-80
2024/02/28 05:49:52;;;;;;;15.03;12.47;;;8.70;99.90;;;;;;5058297;28;20499;-80
2024/02/28 05:52:22;;;;;;;19.02;15.70;;;8.70;99.90;;;;;;5059554;28;20534;-79
2024/02/28 05:54:50;;;;;;;15.50;13.90;;;8.60;99.90;;;;;;5059841;28;20235;-81
2024/02/28 05:57:18;;;;;;;18.63;14.27;;;8.70;99.90;;;;;;5058509;28;20921;-81
2024/02/28 05:59:46;;;;;;;17.70;14.70;;;8.70;99.90;;;;;;5055788;28;20482;-80
2024/02/28 06:02:14;;;;;;;16.83;14.20;;;8.70;99.90;;;;;;5056954;28;20483;-79
2024/02/28 06:04:42;;;;;;;16.90;13.37;;;8.70;99.90;;;;;;5060425;28;20476;-79
2024/02/28 06:07:10;;;;;;;19.57;14.13;;;8.80;99.90;;;;;;5057201;28;20466;-79
2024/02/28 06:09:40;;;;;;;17.83;13.80;;;8.70;99.90;;;;;;5054229;28;20503;-80
2024/02/28 06:12:08;;;;;;;18.53;14.30;;;8.80;99.90;;;;;;5057935;28;20475;-80
2024/02/28 06:14:37;;;;;;;16.63;14.40;;;8.70;99.90;;;;;;5055700;28;20458;-79
2024/02/28 06:17:06;;;;;;;17.17;13.90;;;8.70;99.90;;;;;;5057633;28;20476;-81
2024/02/28 06:19:34;;;;;;;17.00;13.40;;;8.70;99.90;;;;;;5051301;28;20467;-79
2024/02/28 06:22:02;;;;;;;20.00;15.85;;;8.70;99.90;;;;;;5057686;28;20517;-79
2024/02/28 06:24:30;;;;;;;17.47;13.70;;;8.60;99.90;;;;;;5056700;28;20251;-79
2024/02/28 06:27:00;;;;;;;16.00;13.43;;;8.70;99.90;;;;;;5053404;28;20484;-81
2024/02/28 06:29:28;;;;;;;16.20;13.03;;;8.70;99.90;;;;;;5050336;28;21068;-80
2024/02/28 06:31:56;;;;;;;18.17;13.27;;;8.70;99.90;;;;;;5056837;28;20454;-78
2024/02/28 06:34:25;;;;;;;17.80;13.83;;;8.70;99.90;;;;;;5058044;28;20517;-78
2024/02/28 06:36:53;;;;;;;15.67;12.37;;;8.70;99.90;;;;;;5051732;28;20458;-78
2024/02/28 06:39:21;;;;;;;24.53;16.40;;;8.70;99.90;;;;;;5056924;28;20498;-80
2024/02/28 06:41:51;;;;;;;23.27;15.37;;;8.60;99.90;;;;;;5060160;28;20575;-79
2024/02/28 06:44:20;;;;;;;16.70;13.30;;;8.70;99.90;;;;;;5056809;28;20477;-80
2024/02/28 06:46:49;;;;;;;18.83;12.83;;;8.70;99.90;;;;;;5059502;28;20508;-79
2024/02/28 06:49:17;;;;;;;16.10;12.83;;;8.70;99.90;;;;;;5058195;28;20460;-80
2024/02/28 06:51:46;;;;;;;15.77;12.80;;;8.70;99.90;;;;;;5058841;28;20797;-78
2024/02/28 06:54:14;;;;;;;16.33;13.80;;;8.60;99.90;;;;;;5057794;28;20463;-79
2024/02/28 06:56:42;;;;;;;15.73;11.77;;;8.70;99.90;;;;;;5053158;28;20459;-79
2024/02/28 06:59:11;;;;;;;14.40;12.90;;;8.70;99.90;;;;;;5056987;28;21003;-79
2024/02/28 07:01:40;;;;;;;14.70;11.60;;;8.70;99.90;;;;;;5058741;28;20484;-80
2024/02/28 07:04:09;;;;;;;15.70;13.20;;;8.70;99.90;;;;;;5055845;28;20463;-80
2024/02/28 07:06:37;;;;;;;15.47;11.97;;;8.80;99.90;;;;;;5057780;28;20428;-79
2024/02/28 07:09:05;;;;;;;14.80;12.90;;;8.80;99.90;;;;;;5057162;28;20461;-81
2024/02/28 07:11:34;;;;;;;13.47;11.00;;;8.80;99.90;;;;;;5059468;28;20499;-77
2024/02/28 07:14:03;;;;;;;14.87;11.90;;;8.80;99.90;;;;;;5056539;28;21079;-80
2024/02/28 07:16:32;;;;;;;12.07;10.60;;;8.70;99.90;;;;;;5059661;28;20453;-80
2024/02/28 07:19:02;;;;;;;14.67;11.57;;;8.70;99.90;;;;;;5061226;28;20455;-80
2024/02/28 07:21:32;;;;;;;12.67;11.37;;;8.70;99.90;;;;;;5052046;28;20550;-80
2024/02/28 07:24:00;;;;;;;15.47;11.47;;;8.70;99.90;;;;;;5058558;28;20979;-78
2024/02/28 07:26:28;;;;;;;12.43;10.83;;;8.80;99.90;;;;;;5057514;28;20446;-81
2024/02/28 07:28:56;;;;;;;14.63;11.70;;;8.80;99.90;;;;;;5056717;28;20444;-80
2024/02/28 07:31:25;;;;;;;13.33;11.00;;;8.80;99.90;;;;;;5057590;28;20546;-79
2024/02/28 07:33:53;;;;;;;14.70;11.20;;;8.80;99.90;;;;;;5053596;28;20471;-80
2024/02/28 07:36:23;;;;;;;13.03;11.63;;;8.80;99.90;;;;;;5058900;28;20483;-79
2024/02/28 07:38:52;;;;;;;14.73;11.63;;;8.80;99.90;;;;;;5055613;28;20459;-81
2024/02/28 07:41:20;;;;;;;14.20;12.70;;;8.80;99.90;;;;;;5057473;28;20481;-78
2024/02/28 07:43:49;;;;;;;15.10;11.47;;;8.80;99.90;;;;;;5055140;28;21178;-81
2024/02/28 07:46:17;;;;;;;13.50;12.10;;;8.90;99.90;;;;;;5057643;28;20529;-81
2024/02/28 07:48:45;;;;;;;12.37;11.07;;;8.90;99.90;;;;;;5058873;28;20813;-81
2024/02/28 07:51:15;;;;;;;17.13;12.47;;;8.90;99.90;;;;;;5053295;28;20463;-78
2024/02/28 07:53:46;;;;;;;12.47;10.90;;;8.90;99.90;;;;;;5054929;28;20470;-78
2024/02/28 07:56:18;;;;;;;12.80;11.27;;;8.90;99.90;;;;;;5055400;28;20812;-78
2024/02/28 07:58:46;;;;;;;12.50;10.40;;;8.90;99.90;;;;;;5052690;28;20490;-78
2024/02/28 08:01:15;;;;;;;11.10;10.00;;;8.90;99.90;;;;;;5056110;28;20479;-80
2024/02/28 08:03:44;;;;;;;12.60;11.30;;;9.00;99.90;;;;;;5055744;28;20524;-78
2024/02/28 08:06:12;;;;;;;12.53;11.23;;;8.90;99.90;;;;;;5056710;28;20968;-80
2024/02/28 08:08:41;;;;;;;14.67;11.33;;;8.90;99.90;;;;;;5055888;28;20471;-79
2024/02/28 08:11:11;;;;;;;12.67;11.33;;;8.90;99.90;;;;;;5056976;28;20529;-80
2024/02/28 08:13:39;;;;;;;11.87;10.47;;;8.90;99.90;;;;;;5057362;28;20479;-79
2024/02/28 08:16:09;;;;;;;11.73;9.53;;;9.00;99.90;;;;;;5052812;28;20454;-79
2024/02/28 08:18:37;;;;;;;12.57;11.13;;;8.90;99.90;;;;;;5057593;28;20462;-77
2024/02/28 08:21:06;;;;;;;14.40;11.20;;;9.00;99.90;;;;;;5055963;28;20479;-79
2024/02/28 08:23:34;;;;;;;13.70;10.87;;;9.00;99.90;;;;;;5056062;28;20834;-79
2024/02/28 08:26:02;;;;;;;14.47;10.83;;;9.00;99.90;;;;;;5058575;28;21009;-80
2024/02/28 08:28:32;;;;;;;12.43;10.57;;;9.00;99.90;;;;;;5054383;28;20541;-80
2024/02/28 08:31:00;;;;;;;12.67;10.47;;;9.00;99.90;;;;;;5054164;28;20447;-78
2024/02/28 08:33:29;;;;;;;10.70;9.47;;;9.00;99.90;;;;;;5056947;28;20451;-79
2024/02/28 08:35:57;;;;;;;14.63;10.73;;;9.00;99.90;;;;;;5057087;28;21034;-80
2024/02/28 08:38:26;;;;;;;12.90;9.70;;;9.00;99.90;;;;;;5055120;28;20466;-79
2024/02/28 08:40:54;;;;;;;12.33;9.60;;;9.00;99.90;;;;;;5057503;28;20595;-80
2024/02/28 08:43:23;;;;;;;11.27;9.07;;;9.00;99.90;;;;;;5055736;28;20482;-81
2024/02/28 08:45:54;;;;;;;14.33;11.57;;;9.00;99.90;;;;;;5057349;28;20451;-80
2024/02/28 08:48:23;;;;;;;11.27;10.07;;;9.00;99.90;;;;;;5056468;28;20454;-79
2024/02/28 08:50:52;;;;;;;10.97;9.30;;;9.10;99.90;;;;;;5053965;28;20960;-79
2024/02/28 08:53:20;;;;;;;9.77;8.70;;;9.00;99.90;;;;;;5051793;28;20455;-79
2024/02/28 08:55:49;;;;;;;10.33;9.43;;;8.90;99.90;;;;;;5056443;28;20499;-81
2024/02/28 08:58:18;;;;;;;10.87;9.77;;;9.00;99.90;;;;;;5057034;28;20443;-80
2024/02/28 09:00:47;;;;;;;10.90;9.27;;;9.00;99.90;;;;;;5054992;28;20549;-79
2024/02/28 09:03:17;;;;;;;9.67;8.67;;;9.00;99.90;;;;;;5057345;28;20558;-78
2024/02/28 09:05:45;;;;;;;10.77;9.63;;;8.90;99.90;;;;;;5056010;28;20442;-79
2024/02/28 09:08:14;;;;;;;10.37;9.20;;;8.80;99.90;;;;;;5057569;28;20530;-82
2024/02/28 09:10:42;;;;;;;10.23;9.07;;;8.90;99.90;;;;;;5061337;28;20446;-80
2024/02/28 09:13:12;;;;;;;10.43;9.40;;;8.90;99.90;;;;;;5062274;28;20438;-79
2024/02/28 09:15:40;;;;;;;11.30;10.20;;;8.90;99.90;;;;;;5058325;28;20506;-79
2024/02/28 09:18:09;;;;;;;14.30;10.10;;;8.90;99.90;;;;;;5058828;28;20197;-80
2024/02/28 09:20:39;;;;;;;10.60;9.70;;;9.00;99.90;;;;;;5063809;28;20448;-80
2024/02/28 09:23:07;;;;;;;11.10;9.53;;;9.00;99.90;;;;;;5061065;28;20486;-78
2024/02/28 09:25:36;;;;;;;9.87;8.57;;;9.10;99.90;;;;;;5062213;28;20555;-78
2024/02/28 09:28:05;;;;;;;11.03;9.80;;;9.10;99.90;;;;;;5060018;28;20497;-79
2024/02/28 09:30:33;;;;;;;11.00;9.80;;;9.10;99.90;;;;;;5060369;28;20903;-78
2024/02/28 09:33:13;;;;;;;11.03;9.97;;;9.00;99.90;;;;;;5057629;28;20455;-80
2024/02/28 09:35:43;;;;;;;11.30;10.20;;;9.10;99.90;;;;;;5058453;28;20490;-79
2024/02/28 09:38:12;;;;;;;10.50;8.73;;;9.10;99.90;;;;;;5057693;28;20479;-79
2024/02/28 09:40:40;;;;;;;11.33;10.23;;;9.10;99.90;;;;;;5061126;28;20516;-79
2024/02/28 09:43:16;;;;;;;11.03;9.13;;;9.20;99.90;;;;;;5064648;28;20457;-78
2024/02/28 09:45:44;;;;;;;13.10;11.17;;;9.20;99.90;;;;;;5058224;28;20831;-80
2024/02/28 09:48:17;;;;;;;11.70;10.50;;;9.30;99.90;;;;;;5060292;28;20957;-79
2024/02/28 09:50:48;;;;;;;12.00;10.80;;;9.30;99.90;;;;;;5062181;28;21025;-78
2024/02/28 09:53:16;;;;;;;11.77;10.20;;;9.30;99.90;;;;;;5061294;28;20896;-79
2024/02/28 09:55:45;;;;;;;13.10;10.53;;;9.30;99.90;;;;;;5056976;28;20467;-79
2024/02/28 09:58:13;;;;;;;15.37;11.13;;;9.20;99.90;;;;;;5058996;28;20458;-81
2024/02/28 10:00:43;;;;;;;14.87;12.60;;;9.20;99.90;;;;;;5052173;28;20530;-79
2024/02/28 10:03:15;;;;;;;12.67;10.67;;;9.20;99.90;;;;;;5057620;28;20831;-78
2024/02/28 10:05:44;;;;;;;10.80;9.67;;;9.30;99.90;;;;;;5058474;28;20535;-78
2024/02/28 10:08:15;;;;;;;11.43;10.00;;;9.20;99.90;;;;;;5057561;28;20528;-79
2024/02/28 10:10:47;;;;;;;11.70;10.50;;;9.20;99.90;;;;;;5055098;28;21259;-78
2024/02/28 10:13:17;;;;;;;11.23;10.13;;;9.20;99.90;;;;;;5057801;28;21429;-79
2024/02/28 10:15:45;;;;;;;14.10;10.20;;;9.20;99.90;;;;;;5056764;28;20458;-80
2024/02/28 10:18:14;;;;;;;11.60;10.43;;;9.30;99.90;;;;;;5055735;28;20497;-81
2024/02/28 10:20:42;;;;;;;10.70;9.63;;;9.40;99.90;;;;;;5055317;28;20542;-80
2024/02/28 10:23:11;;;;;;;12.60;10.10;;;9.50;99.90;;;;;;5057290;28;21019;-80
2024/02/28 10:25:48;;;;;;;11.70;10.30;;;9.50;99.90;;;;;;5058427;28;20471;-81
2024/02/28 10:28:25;;;;;;;11.83;10.67;;;9.50;99.90;;;;;;5059368;28;20450;-77
2024/02/28 10:30:55;;;;;;;11.83;9.90;;;9.60;99.90;;;;;;5057022;28;20458;-79
2024/02/28 10:33:28;;;;;;;12.40;10.17;;;9.60;99.90;;;;;;5056168;28;20921;-80
2024/02/28 10:35:57;;;;;;;13.30;11.80;;;9.60;99.90;;;;;;5059821;28;20453;-80
2024/02/28 10:38:27;;;;;;;11.73;10.40;;;9.60;99.90;;;;;;5058704;28;20538;-80
2024/02/28 10:40:57;;;;;;;10.87;9.67;;;9.50;99.90;;;;;;5062415;28;20496;-79
2024/02/28 10:43:29;;;;;;;10.60;9.50;;;9.60;99.90;;;;;;5054986;28;20475;-79
2024/02/28 10:45:59;;;;;;;11.30;10.10;;;9.70;99.90;;;;;;5060099;28;20457;-78
2024/02/28 10:48:49;;;;;;;11.43;10.23;;;9.60;99.90;;;;;;5055207;28;20997;-80
2024/02/28 10:51:24;;;;;;;11.57;9.00;;;9.60;99.90;;;;;;5059767;28;20469;-79
2024/02/28 10:54:08;;;;;;;11.00;9.90;;;9.60;99.90;;;;;;5055956;28;20477;-79
2024/02/28 10:56:38;;;;;;;11.17;9.90;;;9.50;99.90;;;;;;5060379;28;20447;-80
2024/02/28 10:59:08;;;;;;;11.03;9.93;;;9.60;99.90;;;;;;5055956;28;20477;-80
2024/02/28 11:01:42;;;;;;;12.00;10.17;;;9.60;99.90;;;;;;5058750;28;20544;-81
2024/02/28 11:04:11;;;;;;;12.30;11.00;;;9.50;99.90;;;;;;5056872;28;20987;-79
2024/02/28 11:06:50;;;;;;;11.20;9.47;;;9.50;99.90;;;;;;5057600;28;20443;-79
2024/02/28 11:09:23;;;;;;;11.17;9.97;;;9.60;99.90;;;;;;5056709;28;20956;-81
2024/02/28 11:11:54;;;;;;;10.73;9.43;;;9.70;99.90;;;;;;5059611;28;20457;-80
2024/02/28 11:14:25;;;;;;;13.17;10.43;;;9.70;99.90;;;;;;5059828;28;20546;-81
2024/02/28 11:17:03;;;;;;;13.23;10.83;;;9.70;99.90;;;;;;5059139;28;20462;-81
2024/02/28 11:19:32;;;;;;;10.70;9.60;;;9.70;99.90;;;;;;5056977;28;20820;-81
2024/02/28 11:22:04;;;;;;;11.97;10.77;;;9.70;99.90;;;;;;5056827;28;20546;-81
2024/02/28 11:24:36;;;;;;;12.17;10.97;;;9.60;99.90;;;;;;5059294;28;20476;-79
2024/02/28 11:27:07;;;;;;;13.30;10.30;;;9.70;99.90;;;;;;5057951;28;20486;-80
2024/02/28 11:29:35;;;;;;;11.87;10.77;;;9.80;99.90;;;;;;5060175;28;20529;-79
2024/02/28 11:32:05;;;;;;;11.67;10.47;;;9.80;99.90;;;;;;5058778;28;20444;-79
2024/02/28 11:34:35;;;;;;;12.60;11.30;;;9.80;99.90;;;;;;5057520;28;20989;-78
2024/02/28 11:37:04;;;;;;;11.03;9.90;;;9.90;99.90;;;;;;5062806;28;20459;-79
2024/02/28 11:39:33;;;;;;;13.80;10.77;;;9.90;99.90;;;;;;5057404;28;20872;-81
2024/02/28 11:42:13;;;;;;;13.87;10.77;;;9.90;99.90;;;;;;5059313;28;20442;-78
2024/02/28 11:44:42;;;;;;;11.60;9.57;;;9.80;99.90;;;;;;5056462;28;20478;-79
2024/02/28 11:47:10;;;;;;;15.10;10.60;;;9.80;99.90;;;;;;5057863;28;20456;-80
2024/02/28 11:49:39;;;;;;;11.37;9.77;;;9.80;99.90;;;;;;5057790;28;20438;-80
2024/02/28 11:52:07;;;;;;;15.23;12.13;;;9.80;99.90;;;;;;5057485;28;20457;-79
2024/02/28 11:54:36;;;;;;;13.87;11.17;;;9.80;99.90;;;;;;5057934;28;20489;-80
2024/02/28 11:57:05;;;;;;;12.30;10.13;;;9.90;99.90;;;;;;5056284;28;20490;-78
2024/02/28 11:59:34;;;;;;;12.60;11.30;;;9.80;99.90;;;;;;5055934;28;20446;-79
2024/02/28 12:02:12;;;;;;;12.00;10.87;;;9.90;99.90;;;;;;5058318;28;20535;-81
2024/02/28 12:04:41;;;;;;;14.10;12.30;;;9.80;99.90;;;;;;5055772;28;20482;-80
2024/02/28 12:07:10;;;;;;;14.03;12.50;;;9.90;99.90;;;;;;5053826;28;20449;-78
2024/02/28 12:09:39;;;;;;;13.03;11.60;;;9.80;99.90;;;;;;5055179;28;20458;-79
2024/02/28 12:12:10;;;;;;;17.73;13.43;;;9.80;99.90;;;;;;5053931;28;21183;-79
2024/02/28 12:14:41;;;;;;;16.67;12.30;;;9.70;99.90;;;;;;5056254;28;20464;-79
2024/02/28 12:17:10;;;;;;;18.43;13.00;;;9.70;99.90;;;;;;5054125;28;20549;-80
2024/02/28 12:19:40;;;;;;;14.13;12.17;;;9.70;99.90;;;;;;5052601;28;20467;-79
2024/02/28 12:22:09;;;;;;;13.80;11.23;;;9.80;99.90;;;;;;5054516;28;20497;-79
2024/02/28 12:24:37;;;;;;;14.97;12.90;;;9.80;99.90;;;;;;5056214;28;20503;-80
2024/02/28 12:27:05;;;;;;;15.50;11.87;;;9.90;99.90;;;;;;5055433;28;20461;-81
2024/02/28 12:29:34;;;;;;;14.33;12.83;;;9.90;99.90;;;;;;5055480;28;20537;-81
2024/02/28 12:32:04;;;;;;;14.30;11.27;;;9.90;99.90;;;;;;5056562;28;21089;-81
2024/02/28 12:34:32;;;;;;;15.10;12.20;;;9.90;99.90;;;;;;5051233;28;20945;-82
2024/02/28 12:37:00;;;;;;;15.03;13.03;;;9.90;99.90;;;;;;5056855;28;20451;-81
2024/02/28 12:39:29;;;;;;;14.90;11.90;;;9.80;99.90;;;;;;5058137;28;20446;-80
2024/02/28 12:41:57;;;;;;;14.60;11.50;;;9.90;99.90;;;;;;5055490;28;20526;-82
2024/02/28 12:44:26;;;;;;;14.67;11.60;;;10.00;99.90;;;;;;5055952;28;20478;-80
2024/02/28 12:46:54;;;;;;;13.10;11.70;;;10.00;99.90;;;;;;5058536;28;20463;-82
2024/02/28 12:49:24;;;;;;;16.53;13.33;;;10.00;99.90;;;;;;5053683;28;20451;-83
2024/02/28 12:51:52;;;;;;;15.23;13.57;;;10.00;99.90;;;;;;5057349;28;20517;-79